sensor_id;sensor_type;location;lat;lon;timestamp;P1;durP1;ratioP1;P2;durP2;ratioP2
7729;SDS011;3908;52.310;7.230;2023-03-23T00:00:16;13.03;;;7.10;;
7729;SDS011;3908;52.310;7.230;2023-03-23T00:03:03;11.43;;;6.23;;
7729;SDS011;3908;52.310;7.230;2023-03-23T00:05:50;11.60;;;7.20;;
7729;SDS011;3908;52.310;7.230;2023-03-23T00:08:37;8.67;;;6.80;;
7729;SDS011;3908;52.310;7.230;2023-03-23T00:11:31;11.47;;;7.03;;
7729;SDS011;3908;52.310;7.230;2023-03-23T00:14:18;14.13;;;6.83;;
7729;SDS011;3908;52.310;7.230;2023-03-23T00:17:09;10.33;;;6.80;;
7729;SDS011;3908;52.310;7.230;2023-03-23T00:19:59;11.57;;;6.57;;
7729;SDS011;3908;52.310;7.230;2023-03-23T00:22:47;10.23;;;6.13;;
7729;SDS011;3908;52.310;7.230;2023-03-23T00:25:33;12.50;;;6.30;;
7729;SDS011;3908;52.310;7.230;2023-03-23T00:28:20;10.80;;;5.77;;
7729;SDS011;3908;52.310;7.230;2023-03-23T00:31:10;12.63;;;5.67;;
7729;SDS011;3908;52.310;7.230;2023-03-23T00:33:59;10.37;;;5.80;;
7729;SDS011;3908;52.310;7.230;2023-03-23T00:36:49;10.90;;;5.87;;
7729;SDS011;3908;52.310;7.230;2023-03-23T00:39:38;8.70;;;5.77;;
7729;SDS011;3908;52.310;7.230;2023-03-23T00:42:31;9.27;;;5.13;;
7729;SDS011;3908;52.310;7.230;2023-03-23T00:45:21;8.40;;;5.20;;
7729;SDS011;3908;52.310;7.230;2023-03-23T00:48:09;7.07;;;4.90;;
7729;SDS011;3908;52.310;7.230;2023-03-23T00:50:59;6.90;;;4.80;;
7729;SDS011;3908;52.310;7.230;2023-03-23T00:53:46;10.60;;;5.07;;
7729;SDS011;3908;52.310;7.230;2023-03-23T00:56:33;9.77;;;5.03;;
7729;SDS011;3908;52.310;7.230;2023-03-23T00:59:20;10.40;;;4.83;;
7729;SDS011;3908;52.310;7.230;2023-03-23T01:02:07;8.20;;;4.83;;
7729;SDS011;3908;52.310;7.230;2023-03-23T01:04:54;6.60;;;4.60;;
7729;SDS011;3908;52.310;7.230;2023-03-23T01:07:43;6.80;;;4.77;;
7729;SDS011;3908;52.310;7.230;2023-03-23T01:10:30;8.97;;;5.07;;
7729;SDS011;3908;52.310;7.230;2023-03-23T01:13:18;6.90;;;4.37;;
7729;SDS011;3908;52.310;7.230;2023-03-23T01:16:05;8.67;;;4.77;;
7729;SDS011;3908;52.310;7.230;2023-03-23T01:18:53;6.73;;;4.67;;
7729;SDS011;3908;52.310;7.230;2023-03-23T01:21:40;9.10;;;5.03;;
7729;SDS011;3908;52.310;7.230;2023-03-23T01:24:28;7.40;;;4.57;;
7729;SDS011;3908;52.310;7.230;2023-03-23T01:27:14;7.13;;;4.40;;
7729;SDS011;3908;52.310;7.230;2023-03-23T01:30:01;10.50;;;4.60;;
7729;SDS011;3908;52.310;7.230;2023-03-23T01:32:48;7.90;;;5.20;;
7729;SDS011;3908;52.310;7.230;2023-03-23T01:35:37;10.67;;;4.47;;
7729;SDS011;3908;52.310;7.230;2023-03-23T01:38:23;7.17;;;4.60;;
7729;SDS011;3908;52.310;7.230;2023-03-23T01:41:12;7.07;;;4.73;;
7729;SDS011;3908;52.310;7.230;2023-03-23T01:44:00;7.77;;;4.57;;
7729;SDS011;3908;52.310;7.230;2023-03-23T01:46:47;9.77;;;5.00;;
7729;SDS011;3908;52.310;7.230;2023-03-23T01:49:35;9.13;;;4.53;;
7729;SDS011;3908;52.310;7.230;2023-03-23T01:52:27;6.47;;;4.37;;
7729;SDS011;3908;52.310;7.230;2023-03-23T01:55:14;10.07;;;4.60;;
7729;SDS011;3908;52.310;7.230;2023-03-23T01:58:03;6.67;;;4.43;;
7729;SDS011;3908;52.310;7.230;2023-03-23T02:00:51;6.80;;;3.80;;
7729;SDS011;3908;52.310;7.230;2023-03-23T02:03:39;5.97;;;4.20;;
7729;SDS011;3908;52.310;7.230;2023-03-23T02:06:28;7.97;;;4.23;;
7729;SDS011;3908;52.310;7.230;2023-03-23T02:09:15;7.00;;;4.40;;
7729;SDS011;3908;52.310;7.230;2023-03-23T02:12:03;8.57;;;4.40;;
7729;SDS011;3908;52.310;7.230;2023-03-23T02:14:51;9.20;;;4.23;;
7729;SDS011;3908;52.310;7.230;2023-03-23T02:17:40;5.87;;;4.20;;
7729;SDS011;3908;52.310;7.230;2023-03-23T02:20:34;5.63;;;4.43;;
7729;SDS011;3908;52.310;7.230;2023-03-23T02:23:35;7.40;;;4.23;;
7729;SDS011;3908;52.310;7.230;2023-03-23T02:26:29;6.80;;;4.20;;
7729;SDS011;3908;52.310;7.230;2023-03-23T02:32:32;10.57;;;4.20;;
7729;SDS011;3908;52.310;7.230;2023-03-23T02:35:27;5.93;;;4.43;;
7729;SDS011;3908;52.310;7.230;2023-03-23T02:38:16;5.73;;;4.27;;
7729;SDS011;3908;52.310;7.230;2023-03-23T02:41:04;8.43;;;4.70;;
7729;SDS011;3908;52.310;7.230;2023-03-23T02:43:51;10.50;;;4.80;;
7729;SDS011;3908;52.310;7.230;2023-03-23T02:46:38;9.73;;;4.50;;
7729;SDS011;3908;52.310;7.230;2023-03-23T02:49:26;9.50;;;4.00;;
7729;SDS011;3908;52.310;7.230;2023-03-23T02:52:16;7.43;;;4.53;;
7729;SDS011;3908;52.310;7.230;2023-03-23T02:55:04;8.33;;;4.53;;
7729;SDS011;3908;52.310;7.230;2023-03-23T02:57:52;7.90;;;4.63;;
7729;SDS011;3908;52.310;7.230;2023-03-23T03:00:39;8.03;;;4.27;;
7729;SDS011;3908;52.310;7.230;2023-03-23T03:03:27;8.87;;;4.60;;
7729;SDS011;3908;52.310;7.230;2023-03-23T03:06:18;5.73;;;4.33;;
7729;SDS011;3908;52.310;7.230;2023-03-23T03:09:11;6.90;;;4.00;;
7729;SDS011;3908;52.310;7.230;2023-03-23T03:12:03;10.57;;;4.27;;
7729;SDS011;3908;52.310;7.230;2023-03-23T03:14:55;5.13;;;4.20;;
7729;SDS011;3908;52.310;7.230;2023-03-23T03:17:46;5.47;;;4.10;;
7729;SDS011;3908;52.310;7.230;2023-03-23T03:20:37;8.47;;;4.60;;
7729;SDS011;3908;52.310;7.230;2023-03-23T03:23:24;7.53;;;4.60;;
7729;SDS011;3908;52.310;7.230;2023-03-23T03:26:13;5.23;;;4.17;;
7729;SDS011;3908;52.310;7.230;2023-03-23T03:29:02;7.20;;;4.33;;
7729;SDS011;3908;52.310;7.230;2023-03-23T03:31:51;8.93;;;4.40;;
7729;SDS011;3908;52.310;7.230;2023-03-23T03:34:40;10.40;;;4.57;;
7729;SDS011;3908;52.310;7.230;2023-03-23T03:37:31;9.23;;;5.10;;
7729;SDS011;3908;52.310;7.230;2023-03-23T03:40:20;8.10;;;4.50;;
7729;SDS011;3908;52.310;7.230;2023-03-23T03:43:09;6.73;;;4.77;;
7729;SDS011;3908;52.310;7.230;2023-03-23T03:45:56;5.83;;;4.30;;
7729;SDS011;3908;52.310;7.230;2023-03-23T03:48:43;7.07;;;4.30;;
7729;SDS011;3908;52.310;7.230;2023-03-23T03:51:30;7.93;;;4.67;;
7729;SDS011;3908;52.310;7.230;2023-03-23T03:54:18;5.67;;;4.43;;
7729;SDS011;3908;52.310;7.230;2023-03-23T03:57:05;5.03;;;4.47;;
7729;SDS011;3908;52.310;7.230;2023-03-23T03:59:53;11.87;;;4.93;;
7729;SDS011;3908;52.310;7.230;2023-03-23T04:02:41;7.27;;;4.27;;
7729;SDS011;3908;52.310;7.230;2023-03-23T04:05:28;5.57;;;3.40;;
7729;SDS011;3908;52.310;7.230;2023-03-23T04:08:15;5.53;;;4.00;;
7729;SDS011;3908;52.310;7.230;2023-03-23T04:11:02;7.07;;;4.00;;
7729;SDS011;3908;52.310;7.230;2023-03-23T04:13:49;6.87;;;4.47;;
7729;SDS011;3908;52.310;7.230;2023-03-23T04:16:37;6.27;;;4.53;;
7729;SDS011;3908;52.310;7.230;2023-03-23T04:19:24;7.33;;;4.67;;
7729;SDS011;3908;52.310;7.230;2023-03-23T04:22:11;9.97;;;4.17;;
7729;SDS011;3908;52.310;7.230;2023-03-23T04:24:58;7.93;;;4.20;;
7729;SDS011;3908;52.310;7.230;2023-03-23T04:27:46;5.37;;;3.60;;
7729;SDS011;3908;52.310;7.230;2023-03-23T04:30:37;6.63;;;4.13;;
7729;SDS011;3908;52.310;7.230;2023-03-23T04:33:29;7.47;;;4.20;;
7729;SDS011;3908;52.310;7.230;2023-03-23T04:36:16;5.87;;;3.90;;
7729;SDS011;3908;52.310;7.230;2023-03-23T04:39:03;7.23;;;4.10;;
7729;SDS011;3908;52.310;7.230;2023-03-23T04:41:52;6.43;;;3.90;;
7729;SDS011;3908;52.310;7.230;2023-03-23T04:44:39;5.53;;;3.97;;
7729;SDS011;3908;52.310;7.230;2023-03-23T04:47:27;4.90;;;4.00;;
7729;SDS011;3908;52.310;7.230;2023-03-23T04:50:16;9.27;;;4.40;;
7729;SDS011;3908;52.310;7.230;2023-03-23T04:53:04;7.23;;;4.73;;
7729;SDS011;3908;52.310;7.230;2023-03-23T04:55:51;8.53;;;4.90;;
7729;SDS011;3908;52.310;7.230;2023-03-23T04:58:37;6.53;;;4.10;;
7729;SDS011;3908;52.310;7.230;2023-03-23T05:01:30;6.73;;;3.97;;
7729;SDS011;3908;52.310;7.230;2023-03-23T05:04:19;8.73;;;5.30;;
7729;SDS011;3908;52.310;7.230;2023-03-23T05:07:07;5.70;;;4.53;;
7729;SDS011;3908;52.310;7.230;2023-03-23T05:09:54;5.57;;;4.27;;
7729;SDS011;3908;52.310;7.230;2023-03-23T05:12:41;7.00;;;4.80;;
7729;SDS011;3908;52.310;7.230;2023-03-23T05:15:28;9.47;;;4.70;;
7729;SDS011;3908;52.310;7.230;2023-03-23T05:18:15;8.50;;;5.17;;
7729;SDS011;3908;52.310;7.230;2023-03-23T05:21:02;9.63;;;6.00;;
7729;SDS011;3908;52.310;7.230;2023-03-23T05:23:51;10.67;;;6.33;;
7729;SDS011;3908;52.310;7.230;2023-03-23T05:26:40;7.10;;;5.13;;
7729;SDS011;3908;52.310;7.230;2023-03-23T05:29:26;8.47;;;4.97;;
7729;SDS011;3908;52.310;7.230;2023-03-23T05:32:15;10.43;;;5.07;;
7729;SDS011;3908;52.310;7.230;2023-03-23T05:35:04;9.80;;;5.77;;
7729;SDS011;3908;52.310;7.230;2023-03-23T05:37:58;7.90;;;5.40;;
7729;SDS011;3908;52.310;7.230;2023-03-23T05:40:46;7.97;;;4.90;;
7729;SDS011;3908;52.310;7.230;2023-03-23T05:43:36;9.37;;;4.90;;
7729;SDS011;3908;52.310;7.230;2023-03-23T05:46:22;8.87;;;5.40;;
7729;SDS011;3908;52.310;7.230;2023-03-23T05:49:09;8.60;;;4.70;;
7729;SDS011;3908;52.310;7.230;2023-03-23T05:51:56;8.53;;;4.93;;
7729;SDS011;3908;52.310;7.230;2023-03-23T05:54:45;8.80;;;4.40;;
7729;SDS011;3908;52.310;7.230;2023-03-23T05:57:34;7.63;;;4.80;;
7729;SDS011;3908;52.310;7.230;2023-03-23T06:00:21;10.63;;;4.83;;
7729;SDS011;3908;52.310;7.230;2023-03-23T06:03:08;8.37;;;4.33;;
7729;SDS011;3908;52.310;7.230;2023-03-23T06:05:55;10.17;;;5.00;;
7729;SDS011;3908;52.310;7.230;2023-03-23T06:08:42;8.77;;;4.50;;
7729;SDS011;3908;52.310;7.230;2023-03-23T06:11:28;6.93;;;4.27;;
7729;SDS011;3908;52.310;7.230;2023-03-23T06:14:17;5.33;;;4.17;;
7729;SDS011;3908;52.310;7.230;2023-03-23T06:17:06;6.57;;;3.63;;
7729;SDS011;3908;52.310;7.230;2023-03-23T06:19:54;8.37;;;3.90;;
7729;SDS011;3908;52.310;7.230;2023-03-23T06:22:43;6.73;;;3.67;;
7729;SDS011;3908;52.310;7.230;2023-03-23T06:25:31;9.20;;;4.23;;
7729;SDS011;3908;52.310;7.230;2023-03-23T06:28:18;10.40;;;4.37;;
7729;SDS011;3908;52.310;7.230;2023-03-23T06:31:07;9.07;;;4.43;;
7729;SDS011;3908;52.310;7.230;2023-03-23T06:33:55;7.47;;;3.70;;
7729;SDS011;3908;52.310;7.230;2023-03-23T06:36:43;6.10;;;3.53;;
7729;SDS011;3908;52.310;7.230;2023-03-23T06:39:33;6.93;;;3.70;;
7729;SDS011;3908;52.310;7.230;2023-03-23T06:42:24;6.47;;;3.40;;
7729;SDS011;3908;52.310;7.230;2023-03-23T06:45:10;7.00;;;3.57;;
7729;SDS011;3908;52.310;7.230;2023-03-23T06:47:59;8.30;;;3.50;;
7729;SDS011;3908;52.310;7.230;2023-03-23T06:50:46;6.10;;;3.33;;
7729;SDS011;3908;52.310;7.230;2023-03-23T06:53:34;5.43;;;2.90;;
7729;SDS011;3908;52.310;7.230;2023-03-23T06:56:21;6.50;;;3.27;;
7729;SDS011;3908;52.310;7.230;2023-03-23T06:59:10;14.47;;;3.37;;
7729;SDS011;3908;52.310;7.230;2023-03-23T07:01:59;4.53;;;3.23;;
7729;SDS011;3908;52.310;7.230;2023-03-23T07:04:50;5.10;;;3.37;;
7729;SDS011;3908;52.310;7.230;2023-03-23T07:07:39;6.60;;;3.20;;
7729;SDS011;3908;52.310;7.230;2023-03-23T07:10:28;6.97;;;3.23;;
7729;SDS011;3908;52.310;7.230;2023-03-23T07:13:18;7.20;;;3.10;;
7729;SDS011;3908;52.310;7.230;2023-03-23T07:16:06;5.23;;;3.50;;
7729;SDS011;3908;52.310;7.230;2023-03-23T07:18:53;5.50;;;3.67;;
7729;SDS011;3908;52.310;7.230;2023-03-23T07:21:44;9.30;;;3.17;;
7729;SDS011;3908;52.310;7.230;2023-03-23T07:24:31;3.60;;;2.83;;
7729;SDS011;3908;52.310;7.230;2023-03-23T07:27:18;5.70;;;3.00;;
7729;SDS011;3908;52.310;7.230;2023-03-23T07:30:05;6.03;;;3.03;;
7729;SDS011;3908;52.310;7.230;2023-03-23T07:32:57;6.57;;;2.80;;
7729;SDS011;3908;52.310;7.230;2023-03-23T07:35:49;5.37;;;3.10;;
7729;SDS011;3908;52.310;7.230;2023-03-23T07:38:38;4.77;;;2.93;;
7729;SDS011;3908;52.310;7.230;2023-03-23T07:41:27;5.20;;;3.17;;
7729;SDS011;3908;52.310;7.230;2023-03-23T07:44:14;5.33;;;3.10;;
7729;SDS011;3908;52.310;7.230;2023-03-23T07:47:03;5.23;;;2.90;;
7729;SDS011;3908;52.310;7.230;2023-03-23T07:49:50;7.17;;;3.13;;
7729;SDS011;3908;52.310;7.230;2023-03-23T07:52:38;5.33;;;2.60;;
7729;SDS011;3908;52.310;7.230;2023-03-23T07:55:27;7.77;;;3.40;;
7729;SDS011;3908;52.310;7.230;2023-03-23T07:58:16;6.80;;;3.00;;
7729;SDS011;3908;52.310;7.230;2023-03-23T08:01:06;8.80;;;3.30;;
7729;SDS011;3908;52.310;7.230;2023-03-23T08:03:54;7.93;;;2.90;;
7729;SDS011;3908;52.310;7.230;2023-03-23T08:06:42;7.47;;;3.23;;
7729;SDS011;3908;52.310;7.230;2023-03-23T08:09:32;7.33;;;3.37;;
7729;SDS011;3908;52.310;7.230;2023-03-23T08:12:22;12.57;;;3.50;;
7729;SDS011;3908;52.310;7.230;2023-03-23T08:15:09;8.40;;;2.97;;
7729;SDS011;3908;52.310;7.230;2023-03-23T08:18:02;7.97;;;3.10;;
7729;SDS011;3908;52.310;7.230;2023-03-23T08:20:50;4.53;;;2.80;;
7729;SDS011;3908;52.310;7.230;2023-03-23T08:23:38;7.20;;;2.67;;
7729;SDS011;3908;52.310;7.230;2023-03-23T08:26:25;13.73;;;2.93;;
7729;SDS011;3908;52.310;7.230;2023-03-23T08:29:15;7.30;;;2.87;;
7729;SDS011;3908;52.310;7.230;2023-03-23T08:32:02;8.27;;;3.00;;
7729;SDS011;3908;52.310;7.230;2023-03-23T08:34:49;10.50;;;2.87;;
7729;SDS011;3908;52.310;7.230;2023-03-23T08:37:36;5.97;;;2.70;;
7729;SDS011;3908;52.310;7.230;2023-03-23T08:40:27;6.40;;;2.20;;
7729;SDS011;3908;52.310;7.230;2023-03-23T08:43:14;5.17;;;2.40;;
7729;SDS011;3908;52.310;7.230;2023-03-23T08:46:03;8.47;;;2.30;;
7729;SDS011;3908;52.310;7.230;2023-03-23T08:48:54;5.70;;;2.27;;
7729;SDS011;3908;52.310;7.230;2023-03-23T08:51:41;5.93;;;2.13;;
7729;SDS011;3908;52.310;7.230;2023-03-23T08:54:28;4.80;;;2.17;;
7729;SDS011;3908;52.310;7.230;2023-03-23T08:57:16;7.90;;;2.47;;
7729;SDS011;3908;52.310;7.230;2023-03-23T09:00:04;5.60;;;2.10;;
7729;SDS011;3908;52.310;7.230;2023-03-23T09:03:00;5.83;;;2.07;;
7729;SDS011;3908;52.310;7.230;2023-03-23T09:05:48;3.07;;;1.63;;
7729;SDS011;3908;52.310;7.230;2023-03-23T09:08:35;7.00;;;1.57;;
7729;SDS011;3908;52.310;7.230;2023-03-23T09:11:22;3.30;;;1.53;;
7729;SDS011;3908;52.310;7.230;2023-03-23T09:14:10;5.83;;;2.10;;
7729;SDS011;3908;52.310;7.230;2023-03-23T09:16:57;2.93;;;1.20;;
7729;SDS011;3908;52.310;7.230;2023-03-23T09:19:46;2.50;;;1.10;;
7729;SDS011;3908;52.310;7.230;2023-03-23T09:22:32;2.00;;;1.47;;
7729;SDS011;3908;52.310;7.230;2023-03-23T09:25:21;2.30;;;1.43;;
7729;SDS011;3908;52.310;7.230;2023-03-23T09:28:08;2.87;;;1.30;;
7729;SDS011;3908;52.310;7.230;2023-03-23T09:30:55;2.63;;;1.10;;
7729;SDS011;3908;52.310;7.230;2023-03-23T09:33:43;5.10;;;1.53;;
7729;SDS011;3908;52.310;7.230;2023-03-23T09:36:32;3.70;;;1.40;;
7729;SDS011;3908;52.310;7.230;2023-03-23T09:39:19;2.13;;;1.30;;
7729;SDS011;3908;52.310;7.230;2023-03-23T09:42:22;4.53;;;1.50;;
7729;SDS011;3908;52.310;7.230;2023-03-23T09:45:14;1.40;;;1.23;;
7729;SDS011;3908;52.310;7.230;2023-03-23T09:48:11;3.70;;;1.60;;
7729;SDS011;3908;52.310;7.230;2023-03-23T09:51:02;2.73;;;1.70;;
7729;SDS011;3908;52.310;7.230;2023-03-23T09:53:52;3.80;;;1.43;;
7729;SDS011;3908;52.310;7.230;2023-03-23T09:56:40;4.13;;;2.20;;
7729;SDS011;3908;52.310;7.230;2023-03-23T09:59:29;5.10;;;1.70;;
7729;SDS011;3908;52.310;7.230;2023-03-23T10:02:18;4.50;;;1.80;;
7729;SDS011;3908;52.310;7.230;2023-03-23T10:05:14;10.10;;;1.60;;
7729;SDS011;3908;52.310;7.230;2023-03-23T10:08:05;3.37;;;1.77;;
7729;SDS011;3908;52.310;7.230;2023-03-23T10:10:58;7.67;;;2.27;;
7729;SDS011;3908;52.310;7.230;2023-03-23T10:14:02;4.27;;;1.80;;
7729;SDS011;3908;52.310;7.230;2023-03-23T10:16:53;6.03;;;2.20;;
7729;SDS011;3908;52.310;7.230;2023-03-23T10:19:45;7.67;;;2.40;;
7729;SDS011;3908;52.310;7.230;2023-03-23T10:22:33;4.13;;;2.03;;
7729;SDS011;3908;52.310;7.230;2023-03-23T10:25:23;5.70;;;2.40;;
7729;SDS011;3908;52.310;7.230;2023-03-23T10:28:12;3.63;;;2.07;;
7729;SDS011;3908;52.310;7.230;2023-03-23T10:30:59;5.60;;;2.13;;
7729;SDS011;3908;52.310;7.230;2023-03-23T10:33:47;4.30;;;1.97;;
7729;SDS011;3908;52.310;7.230;2023-03-23T10:36:36;3.17;;;1.83;;
7729;SDS011;3908;52.310;7.230;2023-03-23T10:39:26;4.77;;;2.20;;
7729;SDS011;3908;52.310;7.230;2023-03-23T10:42:21;4.47;;;2.10;;
7729;SDS011;3908;52.310;7.230;2023-03-23T10:45:15;4.20;;;2.07;;
7729;SDS011;3908;52.310;7.230;2023-03-23T10:48:05;5.00;;;2.40;;
7729;SDS011;3908;52.310;7.230;2023-03-23T10:50:54;3.60;;;1.87;;
7729;SDS011;3908;52.310;7.230;2023-03-23T10:53:42;2.70;;;1.80;;
7729;SDS011;3908;52.310;7.230;2023-03-23T10:56:34;5.07;;;1.70;;
7729;SDS011;3908;52.310;7.230;2023-03-23T10:59:26;6.03;;;1.80;;
7729;SDS011;3908;52.310;7.230;2023-03-23T11:02:16;4.93;;;2.20;;
7729;SDS011;3908;52.310;7.230;2023-03-23T11:05:04;3.83;;;1.80;;
7729;SDS011;3908;52.310;7.230;2023-03-23T11:07:53;5.07;;;1.70;;
7729;SDS011;3908;52.310;7.230;2023-03-23T11:10:42;3.53;;;1.80;;
7729;SDS011;3908;52.310;7.230;2023-03-23T11:13:29;6.73;;;2.00;;
7729;SDS011;3908;52.310;7.230;2023-03-23T11:16:23;6.47;;;1.57;;
7729;SDS011;3908;52.310;7.230;2023-03-23T11:19:14;3.00;;;1.60;;
7729;SDS011;3908;52.310;7.230;2023-03-23T11:22:06;2.43;;;1.30;;
7729;SDS011;3908;52.310;7.230;2023-03-23T11:24:53;5.60;;;1.53;;
7729;SDS011;3908;52.310;7.230;2023-03-23T11:27:41;4.87;;;1.77;;
7729;SDS011;3908;52.310;7.230;2023-03-23T11:30:29;5.70;;;1.70;;
7729;SDS011;3908;52.310;7.230;2023-03-23T11:33:16;7.53;;;1.80;;
7729;SDS011;3908;52.310;7.230;2023-03-23T11:36:06;7.93;;;1.90;;
7729;SDS011;3908;52.310;7.230;2023-03-23T11:38:54;7.93;;;2.03;;
7729;SDS011;3908;52.310;7.230;2023-03-23T11:41:43;6.63;;;2.23;;
7729;SDS011;3908;52.310;7.230;2023-03-23T11:44:31;6.43;;;1.87;;
7729;SDS011;3908;52.310;7.230;2023-03-23T11:47:21;4.37;;;1.87;;
7729;SDS011;3908;52.310;7.230;2023-03-23T11:50:10;4.80;;;1.60;;
7729;SDS011;3908;52.310;7.230;2023-03-23T11:53:02;5.77;;;1.80;;
7729;SDS011;3908;52.310;7.230;2023-03-23T11:55:55;8.33;;;2.17;;
7729;SDS011;3908;52.310;7.230;2023-03-23T11:58:42;5.17;;;2.00;;
7729;SDS011;3908;52.310;7.230;2023-03-23T12:04:40;3.27;;;1.53;;
7729;SDS011;3908;52.310;7.230;2023-03-23T12:07:31;6.47;;;1.97;;
7729;SDS011;3908;52.310;7.230;2023-03-23T12:10:27;6.23;;;1.70;;
7729;SDS011;3908;52.310;7.230;2023-03-23T12:13:21;5.33;;;2.20;;
7729;SDS011;3908;52.310;7.230;2023-03-23T12:16:14;5.47;;;1.57;;
7729;SDS011;3908;52.310;7.230;2023-03-23T12:19:06;6.27;;;1.90;;
7729;SDS011;3908;52.310;7.230;2023-03-23T12:21:56;4.97;;;2.00;;
7729;SDS011;3908;52.310;7.230;2023-03-23T12:24:48;6.63;;;1.80;;
7729;SDS011;3908;52.310;7.230;2023-03-23T12:27:39;4.73;;;1.70;;
7729;SDS011;3908;52.310;7.230;2023-03-23T12:30:31;4.30;;;1.63;;
7729;SDS011;3908;52.310;7.230;2023-03-23T12:33:20;6.20;;;2.13;;
7729;SDS011;3908;52.310;7.230;2023-03-23T12:36:11;6.13;;;1.90;;
7729;SDS011;3908;52.310;7.230;2023-03-23T12:39:10;3.10;;;1.63;;
7729;SDS011;3908;52.310;7.230;2023-03-23T12:41:59;5.63;;;1.80;;
7729;SDS011;3908;52.310;7.230;2023-03-23T12:44:50;6.77;;;2.20;;
7729;SDS011;3908;52.310;7.230;2023-03-23T12:47:39;4.83;;;1.83;;
7729;SDS011;3908;52.310;7.230;2023-03-23T12:50:30;3.13;;;1.53;;
7729;SDS011;3908;52.310;7.230;2023-03-23T12:53:19;3.10;;;1.60;;
7729;SDS011;3908;52.310;7.230;2023-03-23T12:56:10;6.13;;;1.90;;
7729;SDS011;3908;52.310;7.230;2023-03-23T12:59:00;8.77;;;1.87;;
7729;SDS011;3908;52.310;7.230;2023-03-23T13:01:50;4.20;;;1.90;;
7729;SDS011;3908;52.310;7.230;2023-03-23T13:04:38;7.90;;;2.20;;
7729;SDS011;3908;52.310;7.230;2023-03-23T13:07:28;6.33;;;2.00;;
7729;SDS011;3908;52.310;7.230;2023-03-23T13:10:17;3.90;;;2.67;;
7729;SDS011;3908;52.310;7.230;2023-03-23T13:13:07;4.70;;;1.67;;
7729;SDS011;3908;52.310;7.230;2023-03-23T13:16:01;6.10;;;1.70;;
7729;SDS011;3908;52.310;7.230;2023-03-23T13:18:55;6.57;;;2.37;;
7729;SDS011;3908;52.310;7.230;2023-03-23T13:21:43;4.27;;;1.93;;
7729;SDS011;3908;52.310;7.230;2023-03-23T13:24:33;8.53;;;1.90;;
7729;SDS011;3908;52.310;7.230;2023-03-23T13:27:23;6.27;;;2.00;;
7729;SDS011;3908;52.310;7.230;2023-03-23T13:30:17;3.13;;;2.10;;
7729;SDS011;3908;52.310;7.230;2023-03-23T13:33:10;8.13;;;2.30;;
7729;SDS011;3908;52.310;7.230;2023-03-23T13:36:03;8.53;;;2.57;;
7729;SDS011;3908;52.310;7.230;2023-03-23T13:38:52;6.00;;;2.00;;
7729;SDS011;3908;52.310;7.230;2023-03-23T13:41:45;2.87;;;1.70;;
7729;SDS011;3908;52.310;7.230;2023-03-23T13:44:43;4.23;;;2.03;;
7729;SDS011;3908;52.310;7.230;2023-03-23T13:47:35;6.20;;;2.67;;
7729;SDS011;3908;52.310;7.230;2023-03-23T13:50:26;3.43;;;2.30;;
7729;SDS011;3908;52.310;7.230;2023-03-23T13:53:22;2.80;;;1.80;;
7729;SDS011;3908;52.310;7.230;2023-03-23T13:56:13;4.03;;;1.87;;
7729;SDS011;3908;52.310;7.230;2023-03-23T13:59:05;2.93;;;2.07;;
7729;SDS011;3908;52.310;7.230;2023-03-23T14:01:53;7.00;;;1.87;;
7729;SDS011;3908;52.310;7.230;2023-03-23T14:04:40;7.30;;;2.57;;
7729;SDS011;3908;52.310;7.230;2023-03-23T14:07:27;3.90;;;1.90;;
7729;SDS011;3908;52.310;7.230;2023-03-23T14:10:15;6.87;;;1.70;;
7729;SDS011;3908;52.310;7.230;2023-03-23T14:13:04;3.47;;;1.60;;
7729;SDS011;3908;52.310;7.230;2023-03-23T14:15:57;3.47;;;2.00;;
7729;SDS011;3908;52.310;7.230;2023-03-23T14:18:49;5.40;;;2.20;;
7729;SDS011;3908;52.310;7.230;2023-03-23T14:21:36;4.07;;;1.80;;
7729;SDS011;3908;52.310;7.230;2023-03-23T14:24:26;4.43;;;2.07;;
7729;SDS011;3908;52.310;7.230;2023-03-23T14:27:15;6.67;;;1.77;;
7729;SDS011;3908;52.310;7.230;2023-03-23T14:30:03;4.77;;;2.13;;
7729;SDS011;3908;52.310;7.230;2023-03-23T14:32:50;4.13;;;1.60;;
7729;SDS011;3908;52.310;7.230;2023-03-23T14:35:39;4.37;;;1.30;;
7729;SDS011;3908;52.310;7.230;2023-03-23T14:38:27;3.77;;;1.80;;
7729;SDS011;3908;52.310;7.230;2023-03-23T14:41:16;3.57;;;2.30;;
7729;SDS011;3908;52.310;7.230;2023-03-23T14:44:05;5.27;;;3.40;;
7729;SDS011;3908;52.310;7.230;2023-03-23T14:46:52;13.10;;;8.70;;
7729;SDS011;3908;52.310;7.230;2023-03-23T14:49:41;4.67;;;3.20;;
7729;SDS011;3908;52.310;7.230;2023-03-23T14:52:28;4.33;;;1.60;;
7729;SDS011;3908;52.310;7.230;2023-03-23T14:55:17;3.27;;;1.77;;
7729;SDS011;3908;52.310;7.230;2023-03-23T14:58:05;3.40;;;1.90;;
7729;SDS011;3908;52.310;7.230;2023-03-23T15:00:56;4.00;;;2.07;;
7729;SDS011;3908;52.310;7.230;2023-03-23T15:03:44;9.70;;;2.63;;
7729;SDS011;3908;52.310;7.230;2023-03-23T15:06:32;4.93;;;1.90;;
7729;SDS011;3908;52.310;7.230;2023-03-23T15:09:21;3.90;;;2.03;;
7729;SDS011;3908;52.310;7.230;2023-03-23T15:12:09;5.07;;;2.03;;
7729;SDS011;3908;52.310;7.230;2023-03-23T15:14:59;4.23;;;1.80;;
7729;SDS011;3908;52.310;7.230;2023-03-23T15:17:48;6.40;;;2.20;;
7729;SDS011;3908;52.310;7.230;2023-03-23T15:20:45;7.13;;;2.10;;
7729;SDS011;3908;52.310;7.230;2023-03-23T15:23:32;6.00;;;2.20;;
7729;SDS011;3908;52.310;7.230;2023-03-23T15:26:28;3.97;;;2.10;;
7729;SDS011;3908;52.310;7.230;2023-03-23T15:29:24;5.13;;;1.97;;
7729;SDS011;3908;52.310;7.230;2023-03-23T15:32:11;7.07;;;2.10;;
7729;SDS011;3908;52.310;7.230;2023-03-23T15:34:59;4.90;;;1.67;;
7729;SDS011;3908;52.310;7.230;2023-03-23T15:37:51;3.17;;;2.13;;
7729;SDS011;3908;52.310;7.230;2023-03-23T15:40:39;4.23;;;1.97;;
7729;SDS011;3908;52.310;7.230;2023-03-23T15:43:31;5.20;;;1.90;;
7729;SDS011;3908;52.310;7.230;2023-03-23T15:46:21;3.03;;;1.80;;
7729;SDS011;3908;52.310;7.230;2023-03-23T15:49:08;4.53;;;1.90;;
7729;SDS011;3908;52.310;7.230;2023-03-23T15:52:00;6.10;;;2.40;;
7729;SDS011;3908;52.310;7.230;2023-03-23T15:54:47;5.40;;;2.50;;
7729;SDS011;3908;52.310;7.230;2023-03-23T15:57:34;3.90;;;2.30;;
7729;SDS011;3908;52.310;7.230;2023-03-23T16:00:22;4.93;;;2.40;;
7729;SDS011;3908;52.310;7.230;2023-03-23T16:03:11;7.00;;;1.90;;
7729;SDS011;3908;52.310;7.230;2023-03-23T16:05:58;5.20;;;2.20;;
7729;SDS011;3908;52.310;7.230;2023-03-23T16:08:48;3.20;;;1.90;;
7729;SDS011;3908;52.310;7.230;2023-03-23T16:11:35;7.67;;;2.53;;
7729;SDS011;3908;52.310;7.230;2023-03-23T16:14:22;5.30;;;2.27;;
7729;SDS011;3908;52.310;7.230;2023-03-23T16:17:09;4.57;;;1.93;;
7729;SDS011;3908;52.310;7.230;2023-03-23T16:19:58;2.87;;;1.97;;
7729;SDS011;3908;52.310;7.230;2023-03-23T16:22:45;6.07;;;2.40;;
7729;SDS011;3908;52.310;7.230;2023-03-23T16:25:33;3.90;;;2.50;;
7729;SDS011;3908;52.310;7.230;2023-03-23T16:28:20;6.87;;;2.87;;
7729;SDS011;3908;52.310;7.230;2023-03-23T16:31:07;6.53;;;2.80;;
7729;SDS011;3908;52.310;7.230;2023-03-23T16:33:53;5.63;;;2.80;;
7729;SDS011;3908;52.310;7.230;2023-03-23T16:36:40;4.90;;;2.40;;
7729;SDS011;3908;52.310;7.230;2023-03-23T16:39:27;4.77;;;2.20;;
7729;SDS011;3908;52.310;7.230;2023-03-23T16:42:15;5.23;;;2.63;;
7729;SDS011;3908;52.310;7.230;2023-03-23T16:45:02;4.53;;;2.77;;
7729;SDS011;3908;52.310;7.230;2023-03-23T16:47:49;8.20;;;2.97;;
7729;SDS011;3908;52.310;7.230;2023-03-23T16:50:36;4.87;;;2.53;;
7729;SDS011;3908;52.310;7.230;2023-03-23T16:53:23;10.17;;;3.00;;
7729;SDS011;3908;52.310;7.230;2023-03-23T16:56:10;5.23;;;2.83;;
7729;SDS011;3908;52.310;7.230;2023-03-23T16:58:58;6.90;;;2.67;;
7729;SDS011;3908;52.310;7.230;2023-03-23T17:01:47;4.70;;;2.70;;
7729;SDS011;3908;52.310;7.230;2023-03-23T17:04:33;3.77;;;2.33;;
7729;SDS011;3908;52.310;7.230;2023-03-23T17:07:21;6.10;;;2.43;;
7729;SDS011;3908;52.310;7.230;2023-03-23T17:10:09;6.53;;;2.30;;
7729;SDS011;3908;52.310;7.230;2023-03-23T17:12:56;3.83;;;2.23;;
7729;SDS011;3908;52.310;7.230;2023-03-23T17:15:44;5.47;;;2.57;;
7729;SDS011;3908;52.310;7.230;2023-03-23T17:18:31;4.00;;;2.63;;
7729;SDS011;3908;52.310;7.230;2023-03-23T17:21:18;5.83;;;2.53;;
7729;SDS011;3908;52.310;7.230;2023-03-23T17:24:10;6.17;;;3.20;;
7729;SDS011;3908;52.310;7.230;2023-03-23T17:26:56;5.03;;;2.80;;
7729;SDS011;3908;52.310;7.230;2023-03-23T17:29:43;6.93;;;2.70;;
7729;SDS011;3908;52.310;7.230;2023-03-23T17:32:31;4.17;;;2.60;;
7729;SDS011;3908;52.310;7.230;2023-03-23T17:35:18;4.07;;;2.20;;